createdAt,value
2017-11-03T00:00:23.659Z,93.19
2017-11-03T00:02:49.901Z,93.05
2017-11-03T00:05:16.179Z,93.20
2017-11-03T00:07:42.527Z,93.36
2017-11-03T00:10:08.743Z,93.25
2017-11-03T00:12:34.996Z,93.29
2017-11-03T00:15:01.207Z,93.41
2017-11-03T00:17:27.422Z,93.42
2017-11-03T00:19:53.688Z,93.39
2017-11-03T00:22:19.896Z,93.39
2017-11-03T00:24:46.103Z,93.26
2017-11-03T00:27:12.370Z,93.24
2017-11-03T00:29:38.578Z,93.20
2017-11-03T00:32:04.806Z,93.16
2017-11-03T00:34:31.079Z,93.09
2017-11-03T00:36:57.302Z,93.11
2017-11-03T00:39:23.522Z,93.34
2017-11-03T00:41:49.806Z,93.19
2017-11-03T00:44:16.025Z,93.04
2017-11-03T00:46:42.258Z,93.28
2017-11-03T00:49:08.521Z,93.39
2017-11-03T00:51:34.738Z,93.34
2017-11-03T00:54:00.962Z,93.01
2017-11-03T00:56:27.214Z,93.08
2017-11-03T00:58:53.442Z,93.22
2017-11-03T01:01:19.655Z,93.33
2017-11-03T01:03:45.905Z,93.39
2017-11-03T01:06:12.121Z,92.95
2017-11-03T01:08:38.337Z,93.06
2017-11-03T01:11:04.599Z,93.26
2017-11-03T01:13:30.817Z,93.25
2017-11-03T01:15:57.062Z,93.19
2017-11-03T01:18:23.346Z,93.13
2017-11-03T01:20:49.565Z,93.31
2017-11-03T01:23:15.778Z,93.58
2017-11-03T01:25:42.212Z,93.44
2017-11-03T01:28:08.439Z,93.52
2017-11-03T01:30:34.663Z,93.51
2017-11-03T01:33:00.928Z,93.54
2017-11-03T01:35:27.341Z,93.71
2017-11-03T01:37:53.557Z,93.50
2017-11-03T01:40:19.826Z,93.61
2017-11-03T01:42:46.065Z,93.47
2017-11-03T01:45:12.285Z,93.60
2017-11-03T01:47:38.692Z,93.65
2017-11-03T01:50:04.925Z,93.53
2017-11-03T01:52:31.140Z,93.47
2017-11-03T01:54:57.412Z,93.50
2017-11-03T01:57:23.628Z,93.41
2017-11-03T01:59:49.850Z,93.61
2017-11-03T02:02:16.120Z,93.67
2017-11-03T02:04:42.351Z,93.67
2017-11-03T02:07:08.584Z,93.63
2017-11-03T02:09:34.856Z,93.82
2017-11-03T02:12:01.084Z,93.92
2017-11-03T02:14:27.290Z,93.87
2017-11-03T02:16:53.552Z,93.85
2017-11-03T02:19:19.766Z,93.87
2017-11-03T02:21:45.973Z,94.06
2017-11-03T02:24:12.227Z,93.96
2017-11-03T02:26:38.816Z,94.06
2017-11-03T02:29:05.035Z,93.98
2017-11-03T02:31:31.318Z,94.07
2017-11-03T02:33:57.530Z,94.05
2017-11-03T02:36:23.746Z,94.11
2017-11-03T02:38:50.105Z,94.08
2017-11-03T02:41:16.339Z,94.07
2017-11-03T02:43:42.563Z,94.04
2017-11-03T02:46:08.830Z,94.05
2017-11-03T02:48:35.068Z,94.45
2017-11-03T02:51:01.287Z,94.14
2017-11-03T02:53:27.620Z,93.65
2017-11-03T02:55:53.858Z,93.53
2017-11-03T02:58:20.082Z,93.40
2017-11-03T03:00:46.344Z,93.29
2017-11-03T03:03:12.562Z,93.20
2017-11-03T03:05:38.765Z,93.61
2017-11-03T03:08:05.021Z,93.77
2017-11-03T03:10:31.234Z,93.77
2017-11-03T03:12:57.455Z,93.85
2017-11-03T03:15:23.701Z,93.97
2017-11-03T03:17:49.938Z,94.02
2017-11-03T03:20:16.300Z,93.76
2017-11-03T03:22:42.569Z,93.89
2017-11-03T03:25:08.804Z,93.66
2017-11-03T03:27:35.022Z,93.86
2017-11-03T03:30:01.417Z,94.02
2017-11-03T03:32:27.633Z,94.17
2017-11-03T03:34:53.864Z,93.87
2017-11-03T03:37:20.110Z,93.71
2017-11-03T03:39:46.340Z,94.00
2017-11-03T03:42:12.562Z,94.14
2017-11-03T03:44:38.817Z,93.90
2017-11-03T03:47:05.041Z,93.67
2017-11-03T03:49:31.264Z,93.64
2017-11-03T03:51:57.518Z,93.58
2017-11-03T03:54:23.742Z,93.64
2017-11-03T03:56:49.959Z,93.31
2017-11-03T03:59:16.217Z,93.42
2017-11-03T04:01:42.447Z,93.49
2017-11-03T04:04:08.660Z,93.87
2017-11-03T04:06:34.935Z,93.96
2017-11-03T04:09:01.170Z,94.17
2017-11-03T04:11:27.409Z,93.99
2017-11-03T04:13:53.724Z,94.23
2017-11-03T04:16:19.964Z,94.34
2017-11-03T04:18:46.200Z,95.05
2017-11-03T04:21:12.509Z,94.31
2017-11-03T04:23:38.861Z,94.02
2017-11-03T04:26:05.091Z,93.84
2017-11-03T04:28:31.364Z,93.78
2017-11-03T04:30:57.573Z,93.81
2017-11-03T04:33:23.789Z,93.93
2017-11-03T04:35:50.044Z,94.01
2017-11-03T04:38:16.258Z,94.08
2017-11-03T04:40:42.495Z,93.86
2017-11-03T04:43:08.783Z,93.60
2017-11-03T04:45:34.968Z,92.94
2017-11-03T04:48:01.181Z,92.91
2017-11-03T04:50:27.426Z,93.21
2017-11-03T04:52:53.660Z,93.26
2017-11-03T04:55:19.879Z,93.12
2017-11-03T04:57:46.140Z,92.24
2017-11-03T05:00:12.435Z,91.63
2017-11-03T05:02:38.655Z,91.90
2017-11-03T05:05:04.903Z,91.50
2017-11-03T05:07:31.125Z,91.20
2017-11-03T05:09:57.354Z,90.70
2017-11-03T05:12:23.622Z,90.73
2017-11-03T05:14:49.856Z,90.39
2017-11-03T05:17:16.072Z,90.19
2017-11-03T05:19:42.336Z,89.95
2017-11-03T05:22:08.587Z,88.85
2017-11-03T05:24:34.815Z,88.49
2017-11-03T05:27:01.087Z,88.67
2017-11-03T05:29:27.311Z,88.18
2017-11-03T05:31:53.546Z,87.62
2017-11-03T05:34:19.802Z,87.53
2017-11-03T05:36:46.021Z,86.90
2017-11-03T05:39:12.233Z,86.05
2017-11-03T05:41:38.485Z,86.45
2017-11-03T05:44:04.711Z,83.57
2017-11-03T05:46:30.944Z,83.83
2017-11-03T05:48:57.224Z,82.75
2017-11-03T05:51:23.453Z,81.20
2017-11-03T05:53:49.678Z,78.21
2017-11-03T05:56:15.953Z,76.33
2017-11-03T05:58:42.195Z,75.02
2017-11-03T06:01:08.434Z,71.73
2017-11-03T06:03:34.717Z,69.98
2017-11-03T06:06:00.970Z,67.86
2017-11-03T06:08:27.198Z,65.36
2017-11-03T06:10:53.474Z,65.73
2017-11-03T06:13:19.720Z,64.54
2017-11-03T06:15:45.964Z,64.90
2017-11-03T06:18:12.256Z,66.22
2017-11-03T06:20:38.491Z,65.26
2017-11-03T06:23:04.715Z,65.30
2017-11-03T06:25:30.976Z,64.41
2017-11-03T06:27:57.229Z,65.32
2017-11-03T06:30:23.475Z,63.78
2017-11-03T06:32:49.755Z,62.73
2017-11-03T06:35:15.950Z,60.11
2017-11-03T06:37:42.146Z,58.11
2017-11-03T06:40:08.345Z,55.36
2017-11-03T06:42:34.510Z,53.79
2017-11-03T06:45:00.701Z,53.51
2017-11-03T06:47:26.914Z,53.72
2017-11-03T06:49:53.095Z,55.81
2017-11-03T06:52:19.272Z,55.06
2017-11-03T06:54:45.502Z,53.55
2017-11-03T06:57:11.688Z,51.61
2017-11-03T06:59:37.862Z,50.27
2017-11-03T07:02:04.140Z,48.49
2017-11-03T07:04:30.329Z,48.12
2017-11-03T07:06:56.521Z,49.38
2017-11-03T07:09:22.745Z,49.75
2017-11-03T07:11:48.923Z,51.34
2017-11-03T07:14:15.103Z,50.74
2017-11-03T07:16:41.324Z,51.29
2017-11-03T07:19:07.497Z,51.17
2017-11-03T07:21:33.675Z,51.31
2017-11-03T07:23:59.906Z,51.48
2017-11-03T07:26:26.086Z,50.35
2017-11-03T07:28:52.257Z,49.69
2017-11-03T07:31:18.482Z,48.75
2017-11-03T07:33:44.659Z,49.80
2017-11-03T07:36:10.845Z,50.35
2017-11-03T07:38:37.095Z,51.91
2017-11-03T07:41:03.284Z,50.33
2017-11-03T07:43:29.458Z,48.83
2017-11-03T07:45:55.686Z,47.08
2017-11-03T07:48:21.943Z,47.35
2017-11-03T07:50:48.121Z,45.85
2017-11-03T07:53:14.348Z,47.61
2017-11-03T07:55:40.528Z,46.39
2017-11-03T07:58:06.749Z,46.58
2017-11-03T08:00:32.995Z,47.66
2017-11-03T08:02:59.155Z,45.63
2017-11-03T08:05:25.327Z,45.07
2017-11-03T08:07:51.540Z,45.46
2017-11-03T08:10:17.720Z,45.18
2017-11-03T08:12:43.894Z,45.14
2017-11-03T08:15:10.130Z,47.35
2017-11-03T08:17:36.322Z,44.90
2017-11-03T08:20:02.615Z,45.20
2017-11-03T08:22:28.845Z,46.10
2017-11-03T08:24:55.041Z,46.98
2017-11-03T08:27:21.230Z,46.85
2017-11-03T08:29:47.479Z,46.54
2017-11-03T08:32:13.696Z,46.65
2017-11-03T08:34:39.998Z,46.31
2017-11-03T08:37:06.250Z,45.87
2017-11-03T08:39:32.434Z,46.26
2017-11-03T08:41:58.616Z,45.02
2017-11-03T08:44:24.824Z,43.48
2017-11-03T08:46:51.010Z,43.57
2017-11-03T08:49:17.187Z,45.29
2017-11-03T08:51:43.411Z,44.82
2017-11-03T08:54:09.583Z,47.04
2017-11-03T08:56:35.772Z,47.15
2017-11-03T08:59:02.028Z,47.45
2017-11-03T09:01:28.201Z,48.12
2017-11-03T09:03:54.396Z,48.79
2017-11-03T09:06:20.635Z,49.83
2017-11-03T09:08:46.834Z,50.62
2017-11-03T09:11:13.030Z,51.17
2017-11-03T09:13:39.245Z,51.82
2017-11-03T09:16:05.434Z,53.71
2017-11-03T09:18:31.620Z,55.04
2017-11-03T09:20:57.898Z,54.29
2017-11-03T09:23:24.079Z,54.14
2017-11-03T09:25:50.256Z,53.67
2017-11-03T09:28:16.490Z,53.60
2017-11-03T09:30:42.680Z,52.58
2017-11-03T09:33:08.858Z,49.58
2017-11-03T09:35:35.069Z,48.50
2017-11-03T09:38:01.251Z,47.49
2017-11-03T09:40:27.410Z,46.95
2017-11-03T09:42:53.632Z,45.99
2017-11-03T09:45:19.807Z,45.47
2017-11-03T09:47:45.990Z,44.38
2017-11-03T09:50:12.457Z,43.37
2017-11-03T09:52:38.695Z,43.08
2017-11-03T09:55:04.878Z,43.03
2017-11-03T09:57:31.122Z,44.76
2017-11-03T09:59:57.317Z,43.40
2017-11-03T10:02:23.484Z,43.18
2017-11-03T10:04:49.695Z,42.14
2017-11-03T10:07:15.890Z,42.15
2017-11-03T10:09:42.081Z,41.29
2017-11-03T10:12:08.291Z,41.41
2017-11-03T10:14:34.471Z,40.66
2017-11-03T10:17:00.670Z,40.28
2017-11-03T10:19:26.898Z,40.33
2017-11-03T10:21:53.174Z,40.22
2017-11-03T10:24:19.358Z,40.39
2017-11-03T10:26:45.609Z,40.40
2017-11-03T10:29:11.798Z,40.77
2017-11-03T10:31:37.981Z,41.42
2017-11-03T10:34:04.205Z,41.24
2017-11-03T10:36:30.403Z,42.46
2017-11-03T10:38:56.598Z,44.23
2017-11-03T10:41:22.826Z,44.79
2017-11-03T10:43:49.019Z,44.91
2017-11-03T10:46:15.231Z,45.05
2017-11-03T10:48:41.443Z,45.12
2017-11-03T10:51:07.637Z,44.89
2017-11-03T10:53:33.838Z,43.70
2017-11-03T10:56:00.103Z,43.87
2017-11-03T10:58:26.344Z,43.30
2017-11-03T11:00:52.580Z,43.03
2017-11-03T11:03:18.863Z,43.40
2017-11-03T11:05:45.101Z,42.70
2017-11-03T11:08:11.333Z,41.83
2017-11-03T11:10:37.633Z,41.19
2017-11-03T11:13:03.877Z,40.54
2017-11-03T11:15:30.104Z,40.62
2017-11-03T11:17:56.393Z,40.58
2017-11-03T11:20:22.642Z,41.70
2017-11-03T11:22:48.880Z,42.63
2017-11-03T11:25:15.164Z,43.71
2017-11-03T11:27:41.408Z,41.86
2017-11-03T11:30:07.646Z,41.97
2017-11-03T11:32:33.903Z,42.69
2017-11-03T11:35:00.136Z,42.57
2017-11-03T11:37:26.378Z,42.78
2017-11-03T11:39:52.659Z,42.75
2017-11-03T11:42:18.906Z,42.97
2017-11-03T11:44:45.179Z,43.76
2017-11-03T11:47:11.448Z,43.85
2017-11-03T11:49:37.691Z,44.61
2017-11-03T11:52:03.935Z,43.87
2017-11-03T11:54:30.233Z,44.14
2017-11-03T11:56:56.473Z,45.09
2017-11-03T11:59:22.705Z,45.19
2017-11-03T12:01:48.990Z,45.42
2017-11-03T12:04:15.247Z,45.53
2017-11-03T12:06:41.445Z,46.12
2017-11-03T12:09:07.859Z,46.17
2017-11-03T12:11:34.062Z,46.69
2017-11-03T12:14:00.263Z,47.50
2017-11-03T12:16:26.548Z,47.54
2017-11-03T12:18:52.772Z,47.69
2017-11-03T12:21:19.021Z,47.72
2017-11-03T12:23:45.284Z,48.17
2017-11-03T12:26:11.522Z,48.33
2017-11-03T12:28:37.698Z,47.88
2017-11-03T12:31:03.933Z,48.90
2017-11-03T12:33:30.137Z,48.82
2017-11-03T12:35:56.324Z,49.34
2017-11-03T12:38:22.538Z,49.49
2017-11-03T12:40:48.724Z,48.98
2017-11-03T12:43:14.942Z,50.00
2017-11-03T12:45:41.168Z,50.90
2017-11-03T12:48:07.358Z,52.79
2017-11-03T12:50:33.550Z,52.13
2017-11-03T12:52:59.778Z,52.72
2017-11-03T12:55:25.969Z,53.34
2017-11-03T12:57:52.166Z,52.26
2017-11-03T13:00:18.400Z,52.37
2017-11-03T13:02:44.586Z,53.12
2017-11-03T13:05:10.751Z,52.17
2017-11-03T13:07:36.965Z,51.33
2017-11-03T13:10:03.149Z,51.27
2017-11-03T13:12:29.353Z,51.50
2017-11-03T13:14:55.668Z,50.82
2017-11-03T13:17:21.854Z,50.91
2017-11-03T13:19:48.046Z,51.43
2017-11-03T13:22:14.273Z,50.69
2017-11-03T13:24:40.456Z,50.39
2017-11-03T13:27:06.628Z,50.54
2017-11-03T13:29:32.861Z,50.24
2017-11-03T13:31:59.067Z,50.33
2017-11-03T13:34:25.279Z,50.20
2017-11-03T13:36:51.516Z,49.76
2017-11-03T13:39:17.905Z,50.54
2017-11-03T13:41:44.077Z,50.38
2017-11-03T13:44:10.313Z,50.29
2017-11-03T13:46:36.493Z,49.81
2017-11-03T13:49:02.662Z,50.33
2017-11-03T13:51:28.897Z,50.14
2017-11-03T13:53:55.078Z,49.95
2017-11-03T13:56:21.298Z,50.21
2017-11-03T13:58:47.510Z,50.78
2017-11-03T14:01:13.696Z,50.57
2017-11-03T14:03:39.863Z,50.64
2017-11-03T14:06:06.102Z,50.37
2017-11-03T14:08:32.281Z,50.33
2017-11-03T14:10:58.488Z,51.16
2017-11-03T14:13:24.714Z,50.67
2017-11-03T14:15:50.900Z,50.56
2017-11-03T14:18:17.081Z,50.72
2017-11-03T14:20:43.319Z,50.97
2017-11-03T14:23:09.510Z,51.41
2017-11-03T14:25:35.682Z,51.70
2017-11-03T14:28:01.912Z,52.25
2017-11-03T14:30:28.276Z,53.39
2017-11-03T14:32:54.467Z,53.99
2017-11-03T14:35:20.694Z,54.13
2017-11-03T14:37:46.898Z,54.47
2017-11-03T14:40:13.054Z,55.88
2017-11-03T14:42:39.270Z,55.96
2017-11-03T14:45:05.468Z,56.61
2017-11-03T14:47:31.700Z,56.11
2017-11-03T14:49:57.946Z,56.40
2017-11-03T14:52:24.115Z,56.58
2017-11-03T14:54:50.289Z,56.82
2017-11-03T14:57:16.524Z,57.05
2017-11-03T14:59:42.706Z,57.47
2017-11-03T15:02:08.897Z,58.04
2017-11-03T15:04:35.127Z,58.54
2017-11-03T15:07:01.328Z,59.57
2017-11-03T15:09:27.530Z,58.69
2017-11-03T15:11:53.748Z,59.13
2017-11-03T15:14:19.934Z,58.82
2017-11-03T15:16:46.140Z,58.83
2017-11-03T15:19:12.356Z,58.70
2017-11-03T15:21:38.525Z,58.73
2017-11-03T15:24:04.714Z,58.91
2017-11-03T15:26:31.000Z,59.16
2017-11-03T15:28:57.270Z,59.20
2017-11-03T15:31:23.461Z,59.36
2017-11-03T15:33:49.682Z,59.51
2017-11-03T15:36:15.875Z,59.55
2017-11-03T15:38:42.064Z,59.74
2017-11-03T15:41:08.315Z,59.91
2017-11-03T15:43:34.482Z,60.84
2017-11-03T15:46:00.657Z,60.54
2017-11-03T15:48:26.862Z,60.49
2017-11-03T15:50:53.103Z,60.45
2017-11-03T15:53:19.296Z,60.44
2017-11-03T15:55:45.525Z,60.95
2017-11-03T15:58:11.709Z,60.84
2017-11-03T16:00:37.900Z,60.88
2017-11-03T16:03:04.110Z,61.08
2017-11-03T16:05:30.313Z,61.24
2017-11-03T16:07:56.502Z,61.82
2017-11-03T16:10:22.770Z,62.28
2017-11-03T16:12:48.950Z,62.74
2017-11-03T16:15:15.150Z,62.99
2017-11-03T16:17:41.374Z,63.81
2017-11-03T16:20:07.611Z,64.52
2017-11-03T16:22:33.776Z,65.16
2017-11-03T16:25:00.012Z,66.60
2017-11-03T16:27:26.205Z,66.32
2017-11-03T16:29:52.397Z,66.68
2017-11-03T16:32:18.620Z,66.40
2017-11-03T16:34:44.809Z,66.44
2017-11-03T16:37:10.990Z,66.98
2017-11-03T16:39:37.204Z,67.21
2017-11-03T16:42:03.391Z,67.04
2017-11-03T16:44:29.562Z,67.09
2017-11-03T16:46:55.818Z,66.91
2017-11-03T16:49:21.985Z,67.11
2017-11-03T16:51:48.182Z,66.92
2017-11-03T16:54:14.406Z,66.91
2017-11-03T16:56:40.584Z,66.94
2017-11-03T16:59:06.755Z,67.09
2017-11-03T17:01:32.990Z,67.43
2017-11-03T17:03:59.173Z,68.28
2017-11-03T17:06:25.368Z,68.34
2017-11-03T17:08:51.595Z,68.34
2017-11-03T17:11:17.772Z,68.70
2017-11-03T17:13:43.972Z,68.49
2017-11-03T17:16:10.202Z,68.96
2017-11-03T17:18:36.395Z,69.48
2017-11-03T17:21:02.560Z,69.66
2017-11-03T17:23:28.837Z,70.25
2017-11-03T17:25:55.011Z,71.17
2017-11-03T17:28:21.200Z,71.62
2017-11-03T17:30:47.423Z,71.94
2017-11-03T17:33:13.592Z,73.58
2017-11-03T17:35:39.779Z,73.14
2017-11-03T17:38:06.010Z,73.75
2017-11-03T17:40:32.243Z,73.46
2017-11-03T17:42:58.420Z,73.69
2017-11-03T17:45:24.638Z,73.89
2017-11-03T17:47:50.840Z,74.43
2017-11-03T17:50:17.054Z,73.71
2017-11-03T17:52:43.271Z,73.97
2017-11-03T17:55:09.447Z,74.06
2017-11-03T17:57:35.612Z,73.76
2017-11-03T18:00:01.831Z,74.17
2017-11-03T18:02:28.000Z,73.52
2017-11-03T18:04:54.168Z,74.10
2017-11-03T18:07:20.398Z,73.55
2017-11-03T18:09:46.789Z,73.38
2017-11-03T18:12:13.025Z,73.12
2017-11-03T18:14:39.290Z,72.73
2017-11-03T18:17:05.519Z,72.88
2017-11-03T18:19:31.749Z,73.48
2017-11-03T18:21:58.033Z,72.74
2017-11-03T18:24:24.268Z,72.72
2017-11-03T18:26:50.506Z,72.86
2017-11-03T18:29:16.817Z,72.79
2017-11-03T18:31:43.055Z,73.63
2017-11-03T18:34:09.282Z,74.12
2017-11-03T18:36:35.526Z,74.88
2017-11-03T18:39:01.769Z,74.55
2017-11-03T18:41:28.001Z,74.23
2017-11-03T18:43:54.267Z,73.89
2017-11-03T18:46:20.497Z,74.34
2017-11-03T18:48:46.750Z,74.99
2017-11-03T18:51:13.021Z,75.24
2017-11-03T18:53:39.263Z,75.71
2017-11-03T18:56:05.471Z,75.30
2017-11-03T18:58:31.792Z,75.74
2017-11-03T19:00:58.036Z,75.71
2017-11-03T19:03:24.273Z,75.67
2017-11-03T19:05:50.560Z,75.38
2017-11-03T19:08:16.793Z,75.41
2017-11-03T19:10:43.031Z,75.91
2017-11-03T19:13:09.302Z,75.10
2017-11-03T19:15:35.534Z,75.13
2017-11-03T19:18:01.794Z,75.07
2017-11-03T19:20:28.058Z,76.38
2017-11-03T19:22:54.307Z,76.24
2017-11-03T19:25:20.545Z,76.46
2017-11-03T19:27:46.815Z,76.13
2017-11-03T19:30:13.046Z,76.39
2017-11-03T19:32:39.272Z,77.77
2017-11-03T19:35:05.519Z,78.34
2017-11-03T19:37:31.743Z,79.89
2017-11-03T19:39:57.975Z,80.10
2017-11-03T19:42:24.256Z,80.76
2017-11-03T19:44:50.471Z,80.13
2017-11-03T19:47:16.697Z,79.58
2017-11-03T19:49:42.959Z,80.26
2017-11-03T19:52:09.184Z,80.38
2017-11-03T19:54:35.419Z,80.95
2017-11-03T19:57:01.692Z,79.70
2017-11-03T19:59:28.097Z,81.54
2017-11-03T20:01:54.398Z,81.10
2017-11-03T20:04:20.665Z,80.07
2017-11-03T20:06:46.882Z,79.79
2017-11-03T20:09:13.093Z,81.46
2017-11-03T20:11:39.376Z,81.75
2017-11-03T20:14:05.601Z,80.87
2017-11-03T20:16:31.832Z,81.93
2017-11-03T20:18:58.108Z,83.31
2017-11-03T20:21:24.322Z,84.60
2017-11-03T20:23:50.531Z,84.07
2017-11-03T20:26:16.813Z,84.82
2017-11-03T20:28:43.039Z,85.07
2017-11-03T20:31:09.296Z,85.07
2017-11-03T20:33:35.566Z,85.77
2017-11-03T20:36:01.782Z,84.93
2017-11-03T20:38:28.046Z,85.89
2017-11-03T20:40:54.300Z,85.64
2017-11-03T20:43:20.532Z,86.54
2017-11-03T20:45:46.749Z,86.82
2017-11-03T20:48:13.028Z,87.53
2017-11-03T20:50:39.267Z,87.33
2017-11-03T20:53:05.498Z,87.63
2017-11-03T20:55:31.761Z,86.94
2017-11-03T20:57:57.988Z,86.72
2017-11-03T21:00:24.230Z,86.62
2017-11-03T21:02:50.515Z,86.59
2017-11-03T21:05:16.752Z,86.45
2017-11-03T21:07:42.975Z,86.54
2017-11-03T21:10:09.230Z,86.83
2017-11-03T21:12:35.642Z,87.53
2017-11-03T21:15:01.872Z,87.92
2017-11-03T21:17:28.146Z,88.25
2017-11-03T21:19:54.441Z,88.39
2017-11-03T21:22:20.717Z,88.47
2017-11-03T21:24:47.014Z,88.88
2017-11-03T21:27:13.499Z,89.28
2017-11-03T21:29:39.834Z,89.71
2017-11-03T21:32:06.144Z,89.28
2017-11-03T21:34:32.417Z,89.36
2017-11-03T21:36:58.640Z,89.11
2017-11-03T21:39:24.924Z,88.98
2017-11-03T21:41:51.167Z,89.13
2017-11-03T21:44:17.397Z,89.36
2017-11-03T21:46:43.662Z,89.75
2017-11-03T21:49:09.877Z,90.10
2017-11-03T21:51:36.110Z,90.33
2017-11-03T21:54:02.396Z,90.60
2017-11-03T21:56:28.613Z,90.53
2017-11-03T21:58:54.857Z,90.58
2017-11-03T22:01:21.158Z,91.25
2017-11-03T22:03:47.597Z,91.66
2017-11-03T22:06:13.805Z,92.86
2017-11-03T22:08:40.060Z,93.95
2017-11-03T22:11:06.283Z,94.53
2017-11-03T22:13:32.697Z,94.82
2017-11-03T22:15:58.953Z,94.75
2017-11-03T22:18:25.163Z,94.73
2017-11-03T22:20:51.393Z,94.80
2017-11-03T22:23:17.658Z,94.58
2017-11-03T22:25:43.883Z,94.52
2017-11-03T22:28:10.102Z,94.15
2017-11-03T22:30:36.381Z,93.98
2017-11-03T22:33:02.602Z,93.64
2017-11-03T22:35:28.834Z,93.66
2017-11-03T22:37:55.152Z,93.67
2017-11-03T22:40:21.422Z,93.42
2017-11-03T22:42:47.648Z,93.19
2017-11-03T22:45:13.889Z,93.34
2017-11-03T22:47:40.120Z,93.14
2017-11-03T22:50:06.349Z,92.77
2017-11-03T22:52:32.616Z,92.47
2017-11-03T22:54:58.847Z,92.39
2017-11-03T22:57:25.077Z,92.11
2017-11-03T22:59:51.346Z,91.96
2017-11-03T23:02:17.569Z,91.89
2017-11-03T23:04:43.783Z,91.94
2017-11-03T23:07:10.054Z,91.74
2017-11-03T23:09:36.335Z,91.84
2017-11-03T23:12:02.568Z,91.89
2017-11-03T23:14:28.818Z,91.90
2017-11-03T23:16:55.041Z,92.18
2017-11-03T23:19:21.264Z,92.37
2017-11-03T23:21:47.548Z,92.54
2017-11-03T23:24:13.777Z,92.81
2017-11-03T23:26:40.013Z,93.01
2017-11-03T23:29:06.270Z,93.17
2017-11-03T23:31:32.501Z,93.15
2017-11-03T23:33:58.730Z,93.19
2017-11-03T23:36:24.984Z,93.35
2017-11-03T23:38:51.228Z,93.11
2017-11-03T23:41:17.459Z,92.92
2017-11-03T23:43:43.736Z,92.56
2017-11-03T23:46:09.969Z,92.70
2017-11-03T23:48:36.194Z,92.59
2017-11-03T23:51:02.467Z,92.71
2017-11-03T23:53:28.700Z,92.32
2017-11-03T23:55:54.923Z,92.13
2017-11-03T23:58:21.183Z,91.85
